Time;durP1;ratioP1;P1;durP2;ratioP2;P2;SDS_P1;SDS_P2;PMS_P1;PMS_P2;Temp;Humidity;BMP_temperature;BMP_pressure;BME280_temperature;BME280_humidity;BME280_pressure;Samples;Min_cycle;Max_cycle;Signal;HPM_P1;HPM_P2
2021/07/15 00:00:32;;;;;;;10.88;4.90;;;15.70;99.90;;;;;;5045268;28;20053;-64
2021/07/15 00:03:00;;;;;;;7.90;4.75;;;15.60;99.90;;;;;;5044515;28;20063;-64
2021/07/15 00:05:31;;;;;;;8.35;5.30;;;15.60;99.90;;;;;;5042566;28;20049;-62
2021/07/15 00:07:58;;;;;;;8.75;4.60;;;15.60;99.90;;;;;;5042697;28;20242;-63
2021/07/15 00:10:29;;;;;;;7.85;4.50;;;15.60;99.90;;;;;;5043066;28;20091;-63
2021/07/15 00:12:56;;;;;;;9.77;5.10;;;15.60;99.90;;;;;;5040164;28;20084;-63
2021/07/15 00:15:25;;;;;;;17.00;5.22;;;15.70;99.90;;;;;;5044650;28;20113;-63
2021/07/15 00:17:53;;;;;;;8.93;4.57;;;15.70;99.90;;;;;;5043997;28;20565;-64
2021/07/15 00:20:20;;;;;;;6.90;3.78;;;15.70;99.90;;;;;;5043421;28;20402;-64
2021/07/15 00:22:48;;;;;;;7.35;4.35;;;15.80;99.90;;;;;;5044786;28;20076;-65
2021/07/15 00:25:18;;;;;;;6.32;4.13;;;15.70;99.90;;;;;;5045293;28;20131;-63
2021/07/15 00:27:46;;;;;;;6.93;4.22;;;15.60;99.90;;;;;;5042803;28;20080;-63
2021/07/15 00:30:15;;;;;;;8.13;4.82;;;15.50;99.90;;;;;;5045079;28;20438;-64
2021/07/15 00:32:42;;;;;;;8.32;5.32;;;15.40;99.90;;;;;;5045702;28;20102;-64
2021/07/15 00:35:10;;;;;;;12.20;5.53;;;15.30;99.90;;;;;;5045431;28;21197;-64
2021/07/15 00:37:38;;;;;;;10.88;5.40;;;15.30;99.90;;;;;;5045106;28;20080;-64
2021/07/15 00:40:09;;;;;;;10.25;5.25;;;15.20;99.90;;;;;;5045857;28;20493;-64
2021/07/15 00:42:36;;;;;;;11.75;5.13;;;15.20;99.90;;;;;;5042754;28;20057;-64
2021/07/15 00:45:05;;;;;;;10.82;5.25;;;15.20;99.90;;;;;;5040009;28;20144;-64
2021/07/15 00:47:32;;;;;;;12.57;5.90;;;15.20;99.90;;;;;;5038585;28;20562;-63
2021/07/15 00:49:59;;;;;;;11.27;6.25;;;15.30;99.90;;;;;;5043563;28;20072;-64
2021/07/15 00:52:26;;;;;;;10.73;5.25;;;15.30;99.90;;;;;;5043127;28;20055;-64
2021/07/15 00:54:54;;;;;;;11.38;5.75;;;15.30;99.90;;;;;;5043195;28;20102;-63
2021/07/15 00:57:23;;;;;;;10.65;5.22;;;15.30;99.90;;;;;;5041643;28;20044;-63
2021/07/15 00:59:51;;;;;;;12.45;5.53;;;15.30;99.90;;;;;;5042550;28;20052;-63
2021/07/15 01:02:18;;;;;;;9.25;5.20;;;15.30;99.90;;;;;;5043479;28;20049;-64
2021/07/15 01:04:45;;;;;;;11.45;5.45;;;15.20;99.90;;;;;;5043349;28;20531;-64
2021/07/15 01:07:12;;;;;;;11.40;5.35;;;15.30;99.90;;;;;;5043843;28;20102;-64
2021/07/15 01:09:40;;;;;;;11.32;5.28;;;15.30;99.90;;;;;;5043740;28;21537;-63
2021/07/15 01:12:23;;;;;;;10.02;5.55;;;15.30;99.90;;;;;;5044530;28;20052;-64
2021/07/15 01:15:02;;;;;;;12.45;5.60;;;15.30;99.90;;;;;;5044307;28;20080;-64
2021/07/15 01:17:47;;;;;;;10.98;5.35;;;15.50;99.90;;;;;;5043635;28;20132;-64
2021/07/15 01:20:53;;;;;;;8.73;4.90;;;15.50;99.90;;;;;;5043886;28;20546;-64
2021/07/15 01:23:37;;;;;;;12.30;5.13;;;15.30;99.90;;;;;;5003389;28;20084;-63
2021/07/15 01:26:11;;;;;;;7.88;4.75;;;15.30;99.90;;;;;;5044941;28;20045;-63
2021/07/15 01:29:04;;;;;;;10.93;4.88;;;15.20;99.90;;;;;;5044571;28;20052;-63
2021/07/15 01:31:36;;;;;;;12.82;5.05;;;15.20;99.90;;;;;;5043349;28;20084;-63
2021/07/15 01:34:04;;;;;;;13.82;5.25;;;15.10;99.90;;;;;;5043168;28;20126;-63
2021/07/15 01:36:34;;;;;;;9.35;5.63;;;15.10;99.90;;;;;;5040407;28;20072;-63
2021/07/15 01:39:05;;;;;;;10.95;5.32;;;15.20;99.90;;;;;;5042296;28;20098;-63
2021/07/15 01:41:34;;;;;;;8.45;5.10;;;15.20;99.90;;;;;;5042523;28;20084;-63
2021/07/15 01:44:06;;;;;;;11.38;5.60;;;15.20;99.90;;;;;;5042604;28;20084;-63
2021/07/15 01:46:35;;;;;;;9.10;4.90;;;15.30;99.90;;;;;;5041300;28;20045;-63
2021/07/15 01:49:03;;;;;;;7.65;4.47;;;15.10;99.90;;;;;;5040369;28;20123;-63
2021/07/15 01:51:31;;;;;;;9.50;4.63;;;15.10;99.90;;;;;;5042935;28;20045;-63
2021/07/15 01:53:58;;;;;;;7.35;4.75;;;15.10;99.90;;;;;;5042434;28;20084;-63
2021/07/15 01:56:27;;;;;;;7.43;4.43;;;15.20;99.90;;;;;;5039630;28;20048;-64
2021/07/15 01:58:55;;;;;;;9.57;5.25;;;15.30;99.90;;;;;;5040473;28;20122;-63
2021/07/15 02:01:24;;;;;;;12.27;5.18;;;15.40;99.90;;;;;;5041981;28;20084;-63
2021/07/15 02:03:55;;;;;;;9.10;4.47;;;15.30;99.90;;;;;;5040716;28;20048;-65
2021/07/15 02:06:24;;;;;;;7.85;4.80;;;15.40;99.90;;;;;;5039401;28;20064;-64
2021/07/15 02:08:53;;;;;;;17.92;6.03;;;15.50;99.90;;;;;;5039698;28;20068;-63
2021/07/15 02:11:21;;;;;;;11.45;4.80;;;15.50;99.90;;;;;;5041616;28;20102;-64
2021/07/15 02:13:50;;;;;;;9.98;4.80;;;15.50;99.90;;;;;;5040672;28;20447;-64
2021/07/15 02:16:18;;;;;;;10.35;4.75;;;15.60;99.90;;;;;;5041478;28;20056;-64
2021/07/15 02:18:46;;;;;;;9.88;5.05;;;15.70;99.90;;;;;;5039970;28;20055;-64
2021/07/15 02:21:16;;;;;;;9.35;4.47;;;15.60;99.90;;;;;;5039663;28;20091;-63
2021/07/15 02:23:45;;;;;;;10.93;4.57;;;15.50;99.90;;;;;;5040382;28;20052;-64
2021/07/15 02:26:13;;;;;;;6.93;4.65;;;15.50;99.90;;;;;;5038036;28;20048;-64
2021/07/15 02:28:41;;;;;;;16.10;5.57;;;15.50;99.90;;;;;;5038410;28;20060;-63
2021/07/15 02:31:14;;;;;;;9.60;4.30;;;15.50;99.90;;;;;;5038889;28;20135;-63
2021/07/15 02:33:48;;;;;;;9.80;5.03;;;15.50;99.90;;;;;;5038608;28;20084;-63
2021/07/15 02:36:19;;;;;;;9.10;5.20;;;15.60;99.90;;;;;;5037976;28;20242;-64
2021/07/15 02:38:49;;;;;;;7.82;4.75;;;15.50;99.90;;;;;;5037092;28;20091;-64
2021/07/15 02:41:17;;;;;;;7.32;4.57;;;15.50;99.90;;;;;;5037740;28;20493;-64
2021/07/15 02:43:44;;;;;;;9.98;5.00;;;15.50;99.90;;;;;;5038265;28;20155;-64
2021/07/15 02:46:11;;;;;;;14.00;5.38;;;15.50;99.90;;;;;;5037982;28;20136;-64
2021/07/15 02:48:38;;;;;;;11.88;5.18;;;15.50;99.90;;;;;;5037614;28;20703;-64
2021/07/15 02:51:05;;;;;;;8.57;4.78;;;15.60;99.90;;;;;;5040295;28;20493;-64
2021/07/15 02:53:34;;;;;;;10.77;5.50;;;15.70;99.90;;;;;;5038442;28;20131;-64
2021/07/15 02:56:10;;;;;;;12.38;5.10;;;15.70;99.90;;;;;;5037578;28;20526;-64
2021/07/15 02:58:45;;;;;;;8.67;5.00;;;15.70;99.90;;;;;;5036791;28;20049;-64
2021/07/15 03:01:18;;;;;;;10.00;4.93;;;15.70;99.90;;;;;;5038032;28;20340;-62
2021/07/15 03:03:52;;;;;;;8.93;5.03;;;15.70;99.90;;;;;;5037293;28;20515;-63
2021/07/15 03:06:25;;;;;;;14.07;5.13;;;15.70;99.90;;;;;;5037895;28;20092;-63
2021/07/15 03:08:59;;;;;;;11.50;4.63;;;15.70;99.90;;;;;;5036079;28;20055;-63
2021/07/15 03:11:33;;;;;;;8.38;4.78;;;15.60;99.90;;;;;;5037434;28;20080;-63
2021/07/15 03:14:02;;;;;;;9.82;4.80;;;15.60;99.90;;;;;;5037613;28;20110;-63
2021/07/15 03:16:29;;;;;;;9.82;5.18;;;15.70;99.90;;;;;;5037351;28;22114;-63
2021/07/15 03:18:58;;;;;;;15.10;5.65;;;15.60;99.90;;;;;;5036344;28;20083;-63
2021/07/15 03:21:27;;;;;;;9.48;5.00;;;15.40;99.90;;;;;;5040180;28;20489;-64
2021/07/15 03:23:58;;;;;;;9.98;5.25;;;15.50;99.90;;;;;;5037044;28;20517;-64
2021/07/15 03:26:25;;;;;;;9.85;5.03;;;15.50;99.90;;;;;;5037475;28;20139;-63
2021/07/15 03:28:54;;;;;;;12.63;5.93;;;15.50;99.90;;;;;;5037543;28;20053;-63
2021/07/15 03:31:24;;;;;;;11.27;5.82;;;15.60;99.90;;;;;;5036951;28;20095;-64
2021/07/15 03:33:52;;;;;;;9.98;5.63;;;15.70;99.90;;;;;;5038374;28;20084;-64
2021/07/15 03:36:20;;;;;;;18.45;6.32;;;15.70;99.90;;;;;;5036684;28;20056;-63
2021/07/15 03:38:47;;;;;;;14.25;5.80;;;15.60;99.90;;;;;;5037297;28;20087;-64
2021/07/15 03:41:16;;;;;;;10.98;5.95;;;15.50;99.90;;;;;;5037188;28;20488;-64
2021/07/15 03:43:45;;;;;;;9.07;5.82;;;15.50;99.90;;;;;;5038895;28;20052;-64
2021/07/15 03:46:13;;;;;;;11.00;5.63;;;15.50;99.90;;;;;;5037648;28;20101;-64
2021/07/15 03:48:41;;;;;;;10.82;5.25;;;15.60;99.90;;;;;;5037051;28;20098;-64
2021/07/15 03:51:10;;;;;;;11.10;5.38;;;15.70;99.90;;;;;;5037858;28;20084;-64
2021/07/15 03:53:40;;;;;;;12.38;5.72;;;15.70;99.90;;;;;;5037647;28;20055;-64
2021/07/15 03:56:10;;;;;;;12.27;5.38;;;15.70;99.90;;;;;;5037426;28;20493;-64
2021/07/15 03:58:41;;;;;;;11.63;6.32;;;15.70;99.90;;;;;;5036598;28;20053;-64
2021/07/15 04:01:10;;;;;;;13.88;6.10;;;15.80;99.90;;;;;;5038779;28;20053;-64
2021/07/15 04:03:38;;;;;;;14.02;6.57;;;15.80;99.90;;;;;;5038446;28;20060;-65
2021/07/15 04:06:07;;;;;;;13.02;5.35;;;15.80;99.90;;;;;;5036781;28;20063;-64
2021/07/15 04:08:39;;;;;;;8.80;5.38;;;15.90;99.90;;;;;;5035768;28;20094;-64
2021/07/15 04:11:08;;;;;;;14.23;5.53;;;15.90;99.90;;;;;;5037382;28;20056;-63
2021/07/15 04:13:36;;;;;;;9.27;5.13;;;15.90;99.90;;;;;;5035942;28;20076;-64
2021/07/15 04:16:32;;;;;;;12.05;5.88;;;15.90;99.90;;;;;;5036411;28;20142;-63
2021/07/15 04:19:02;;;;;;;13.18;5.47;;;16.00;99.90;;;;;;5027376;28;20185;-65
2021/07/15 04:21:30;;;;;;;10.68;5.25;;;16.10;99.90;;;;;;5038398;28;21333;-65
2021/07/15 04:23:59;;;;;;;9.88;5.22;;;16.00;99.90;;;;;;5039234;28;20135;-63
2021/07/15 04:26:26;;;;;;;8.45;5.32;;;16.00;99.90;;;;;;5037117;28;20138;-64
2021/07/15 04:28:54;;;;;;;13.65;5.82;;;16.00;99.90;;;;;;5038880;28;20049;-64
2021/07/15 04:31:33;;;;;;;13.88;6.20;;;16.00;99.90;;;;;;5039029;28;20084;-64
2021/07/15 04:34:01;;;;;;;10.13;5.68;;;16.10;99.90;;;;;;5038319;28;20118;-64
2021/07/15 04:36:30;;;;;;;9.35;5.18;;;16.10;99.90;;;;;;5039790;28;20044;-64
2021/07/15 04:38:58;;;;;;;10.90;5.00;;;16.20;99.90;;;;;;5038928;28;20056;-64
2021/07/15 04:41:26;;;;;;;11.75;5.10;;;16.20;99.90;;;;;;5038601;28;20045;-64
2021/07/15 04:43:56;;;;;;;10.13;5.63;;;16.30;99.90;;;;;;5040501;28;20073;-64
2021/07/15 04:46:24;;;;;;;10.82;5.25;;;16.30;99.90;;;;;;5038076;28;20480;-64
2021/07/15 04:48:53;;;;;;;10.27;5.18;;;16.40;99.90;;;;;;5038379;28;20045;-63
2021/07/15 04:51:21;;;;;;;12.73;5.93;;;16.40;99.90;;;;;;5038072;28;20080;-63
2021/07/15 04:53:49;;;;;;;14.60;5.55;;;16.40;99.90;;;;;;5039537;28;20083;-63
2021/07/15 04:56:17;;;;;;;11.13;5.85;;;16.40;99.90;;;;;;5037186;28;20862;-63
2021/07/15 04:58:45;;;;;;;11.70;5.70;;;16.30;99.90;;;;;;5039860;28;20040;-64
2021/07/15 05:01:12;;;;;;;12.00;5.70;;;16.40;99.90;;;;;;5040592;28;20080;-64
2021/07/15 05:03:40;;;;;;;9.60;5.50;;;16.30;99.90;;;;;;5041951;28;20152;-63
2021/07/15 05:06:09;;;;;;;9.50;5.55;;;16.50;99.90;;;;;;5039844;28;20463;-64
2021/07/15 05:08:39;;;;;;;10.10;5.88;;;16.50;99.90;;;;;;5037946;28;20133;-64
2021/07/15 05:11:07;;;;;;;10.70;5.43;;;16.40;99.90;;;;;;5041169;28;20083;-64
2021/07/15 05:13:34;;;;;;;11.52;5.20;;;16.50;99.90;;;;;;5043827;28;20049;-64
2021/07/15 05:16:01;;;;;;;9.93;5.65;;;16.50;99.90;;;;;;5043356;28;20079;-64
2021/07/15 05:18:28;;;;;;;11.27;5.55;;;16.60;99.90;;;;;;5041751;28;20109;-64
2021/07/15 05:20:55;;;;;;;10.07;5.35;;;16.50;99.90;;;;;;5050061;28;20056;-64
2021/07/15 05:23:24;;;;;;;9.13;5.45;;;16.60;99.90;;;;;;5051056;28;20094;-64
2021/07/15 05:25:52;;;;;;;13.00;5.70;;;16.60;99.90;;;;;;5051419;28;20149;-64
2021/07/15 05:28:20;;;;;;;10.65;5.45;;;16.60;99.90;;;;;;5049966;28;20049;-64
2021/07/15 05:30:47;;;;;;;9.13;6.05;;;16.60;99.90;;;;;;5049506;28;20044;-64
2021/07/15 05:33:14;;;;;;;12.73;6.30;;;16.60;99.90;;;;;;5040966;28;20080;-64
2021/07/15 05:35:42;;;;;;;12.60;5.93;;;16.60;99.90;;;;;;5050147;28;20080;-64
2021/07/15 05:38:09;;;;;;;10.52;5.70;;;16.60;99.90;;;;;;5046276;28;20127;-63
2021/07/15 05:40:37;;;;;;;10.32;6.05;;;16.60;99.90;;;;;;5042928;28;20137;-63
2021/07/15 05:43:04;;;;;;;11.02;6.28;;;16.60;99.90;;;;;;5043418;28;20044;-64
2021/07/15 05:45:31;;;;;;;14.20;5.63;;;16.70;99.90;;;;;;5041988;28;20098;-63
2021/07/15 05:47:59;;;;;;;9.23;6.00;;;16.70;99.90;;;;;;5040249;28;20080;-65
2021/07/15 05:50:26;;;;;;;10.75;6.32;;;16.70;99.90;;;;;;5041122;28;20080;-64
2021/07/15 05:52:53;;;;;;;10.98;5.90;;;16.80;99.90;;;;;;5039769;28;20076;-64
2021/07/15 05:55:20;;;;;;;11.57;5.78;;;16.70;99.90;;;;;;5043941;28;20161;-64
2021/07/15 05:57:48;;;;;;;12.63;6.15;;;16.70;99.90;;;;;;5046159;28;20141;-64
2021/07/15 06:00:16;;;;;;;8.45;5.18;;;16.90;99.90;;;;;;5030608;28;20084;-64
2021/07/15 06:02:43;;;;;;;9.88;5.63;;;16.80;99.90;;;;;;5031605;28;20056;-64
2021/07/15 06:05:10;;;;;;;9.77;5.32;;;16.90;99.90;;;;;;5032867;28;20048;-64
2021/07/15 06:07:38;;;;;;;10.90;5.47;;;16.90;99.90;;;;;;5031494;28;20052;-63
2021/07/15 06:10:06;;;;;;;11.25;5.45;;;16.80;99.90;;;;;;5034048;28;20040;-64
2021/07/15 06:12:33;;;;;;;12.82;5.20;;;16.80;99.90;;;;;;5032167;28;20123;-63
2021/07/15 06:15:02;;;;;;;12.32;5.40;;;16.90;99.90;;;;;;5039034;28;20044;-63
2021/07/15 06:17:29;;;;;;;12.95;5.13;;;17.10;99.90;;;;;;5036562;28;20091;-64
2021/07/15 06:19:56;;;;;;;12.02;5.80;;;17.10;99.90;;;;;;5038273;28;20303;-63
2021/07/15 06:22:23;;;;;;;13.75;5.63;;;17.10;99.90;;;;;;5036324;28;21588;-64
2021/07/15 06:24:50;;;;;;;11.35;5.50;;;17.20;99.90;;;;;;5038463;28;20053;-64
2021/07/15 06:27:17;;;;;;;11.25;5.40;;;17.30;99.90;;;;;;5036774;28;20161;-65
2021/07/15 06:29:44;;;;;;;10.43;5.15;;;17.20;99.90;;;;;;5038840;28;20129;-63
2021/07/15 06:32:12;;;;;;;11.10;5.10;;;17.30;99.90;;;;;;5037861;28;20296;-63
2021/07/15 06:34:39;;;;;;;9.80;5.13;;;17.40;99.90;;;;;;5038651;28;20097;-63
2021/07/15 06:37:09;;;;;;;10.50;5.53;;;17.50;99.90;;;;;;5036622;28;20053;-63
2021/07/15 06:39:37;;;;;;;8.85;5.05;;;17.50;99.90;;;;;;5034971;28;20106;-63
2021/07/15 06:42:04;;;;;;;10.23;5.32;;;17.70;99.90;;;;;;5038575;28;20048;-63
2021/07/15 06:44:31;;;;;;;8.23;5.25;;;17.70;99.90;;;;;;5042688;28;20088;-63
2021/07/15 06:46:59;;;;;;;9.80;5.05;;;17.60;99.90;;;;;;5044640;28;20455;-63
2021/07/15 06:49:28;;;;;;;10.18;6.05;;;17.70;99.90;;;;;;5042339;28;20052;-63
2021/07/15 06:51:57;;;;;;;10.52;4.55;;;17.60;99.90;;;;;;5043374;28;20082;-63
2021/07/15 06:54:24;;;;;;;7.90;4.38;;;17.70;99.90;;;;;;5042517;28;20348;-63
2021/07/15 06:56:51;;;;;;;8.80;4.70;;;17.70;99.90;;;;;;5042736;28;20049;-63
2021/07/15 06:59:18;;;;;;;7.85;4.20;;;17.70;99.90;;;;;;5036105;28;20056;-63
2021/07/15 07:01:45;;;;;;;14.70;4.15;;;17.70;99.90;;;;;;5037971;28;20084;-64
2021/07/15 07:04:12;;;;;;;7.22;3.78;;;17.80;99.90;;;;;;5036810;28;20048;-64
2021/07/15 07:06:41;;;;;;;11.18;4.60;;;17.90;99.90;;;;;;5037578;28;20491;-64
2021/07/15 07:09:09;;;;;;;6.28;3.90;;;17.70;99.90;;;;;;5037142;28;20220;-64
2021/07/15 07:11:36;;;;;;;9.68;3.80;;;17.90;99.90;;;;;;5038290;28;20122;-63
2021/07/15 07:14:03;;;;;;;7.65;4.20;;;17.80;99.90;;;;;;5037594;28;20547;-63
2021/07/15 07:16:30;;;;;;;9.10;3.97;;;17.90;99.90;;;;;;5036729;28;20080;-64
2021/07/15 07:19:00;;;;;;;6.93;3.20;;;18.00;99.90;;;;;;5036910;28;20094;-64
2021/07/15 07:21:27;;;;;;;8.02;4.50;;;18.10;99.90;;;;;;5038007;28;20052;-64
2021/07/15 07:23:55;;;;;;;7.82;3.80;;;18.20;99.90;;;;;;5036796;28;20140;-65
2021/07/15 07:26:25;;;;;;;10.30;4.38;;;18.10;99.90;;;;;;5037580;28;20141;-63
2021/07/15 07:28:52;;;;;;;10.25;4.30;;;18.10;99.90;;;;;;5036098;28;20125;-64
2021/07/15 07:31:19;;;;;;;12.63;4.63;;;18.20;99.90;;;;;;5036775;28;20142;-63
2021/07/15 07:33:46;;;;;;;6.18;3.47;;;18.20;99.90;;;;;;5033516;28;20053;-63
2021/07/15 07:36:13;;;;;;;5.45;3.80;;;18.20;99.90;;;;;;5030333;28;20076;-63
2021/07/15 07:38:40;;;;;;;9.05;5.20;;;18.10;99.90;;;;;;5037811;28;20538;-64
2021/07/15 07:41:08;;;;;;;11.35;8.00;;;18.10;99.90;;;;;;5035567;28;20071;-64
2021/07/15 07:43:37;;;;;;;11.25;7.45;;;18.10;99.90;;;;;;5036910;28;20092;-64
2021/07/15 07:46:04;;;;;;;13.75;10.10;;;18.10;99.90;;;;;;5037707;28;20239;-64
2021/07/15 07:48:31;;;;;;;14.10;9.15;;;18.20;99.90;;;;;;5034887;28;20127;-64
2021/07/15 07:50:59;;;;;;;9.25;6.97;;;18.30;99.90;;;;;;5037231;28;20059;-65
2021/07/15 07:53:26;;;;;;;7.75;5.20;;;18.30;99.90;;;;;;5036893;28;20055;-65
2021/07/15 07:55:54;;;;;;;8.15;5.50;;;18.30;99.90;;;;;;5037782;28;20063;-65
2021/07/15 07:58:23;;;;;;;6.55;4.55;;;18.20;99.90;;;;;;5036196;28;20521;-65
2021/07/15 08:00:50;;;;;;;4.78;2.80;;;18.30;99.90;;;;;;5036052;28;20059;-65
2021/07/15 08:03:17;;;;;;;3.95;2.58;;;18.40;99.90;;;;;;5037201;28;20084;-66
2021/07/15 08:05:45;;;;;;;6.65;1.90;;;18.50;99.90;;;;;;5037149;28;20049;-63
2021/07/15 08:08:12;;;;;;;4.80;2.40;;;18.70;99.90;;;;;;5034865;28;20148;-65
2021/07/15 08:10:39;;;;;;;7.65;2.85;;;18.70;99.90;;;;;;5037123;28;20049;-64
2021/07/15 08:13:06;;;;;;;3.45;2.00;;;18.90;99.90;;;;;;5036516;28;20167;-64
2021/07/15 08:15:35;;;;;;;4.60;2.00;;;19.10;99.90;;;;;;5036319;28;20106;-64
2021/07/15 08:18:02;;;;;;;4.13;1.92;;;19.50;99.90;;;;;;5036304;28;20084;-64
2021/07/15 08:20:29;;;;;;;5.90;2.05;;;19.40;99.90;;;;;;5036788;28;20106;-64
2021/07/15 08:22:56;;;;;;;4.43;1.65;;;19.60;99.90;;;;;;5037077;28;20472;-64
2021/07/15 08:25:23;;;;;;;3.92;2.00;;;19.70;99.90;;;;;;5036209;28;20128;-64
2021/07/15 08:27:51;;;;;;;4.57;1.48;;;19.90;99.90;;;;;;5035851;28;20724;-65
2021/07/15 08:30:20;;;;;;;7.25;2.00;;;19.90;99.90;;;;;;5035645;28;20614;-64
2021/07/15 08:32:48;;;;;;;2.33;1.67;;;20.30;99.90;;;;;;5036611;28;20554;-63
2021/07/15 08:35:15;;;;;;;1.98;1.30;;;20.50;99.90;;;;;;5034720;28;20053;-64
2021/07/15 08:37:42;;;;;;;5.30;1.35;;;20.90;99.90;;;;;;5035380;28;21187;-64
2021/07/15 08:40:10;;;;;;;2.15;1.30;;;20.90;99.90;;;;;;5035642;28;20056;-63
2021/07/15 08:42:39;;;;;;;3.60;1.30;;;21.20;99.90;;;;;;5037056;28;20102;-63
2021/07/15 08:45:08;;;;;;;2.97;1.42;;;21.50;99.90;;;;;;5036341;28;20052;-64
2021/07/15 08:47:37;;;;;;;2.03;1.30;;;21.80;99.90;;;;;;5038748;28;20131;-64
2021/07/15 08:50:07;;;;;;;2.15;1.20;;;22.00;99.90;;;;;;5040619;28;20048;-64
2021/07/15 08:52:35;;;;;;;3.22;1.55;;;22.20;99.90;;;;;;5039263;28;20094;-62
2021/07/15 08:55:16;;;;;;;2.10;1.13;;;22.40;99.90;;;;;;5039550;28;20762;-63
2021/07/15 08:57:43;;;;;;;3.80;1.50;;;22.30;99.90;;;;;;5039283;28;20056;-63
2021/07/15 09:00:12;;;;;;;2.67;1.40;;;22.20;99.90;;;;;;5039192;28;20437;-63
2021/07/15 09:02:40;;;;;;;3.97;1.15;;;21.90;99.90;;;;;;5040782;28;21517;-64
2021/07/15 09:05:10;;;;;;;2.50;1.00;;;22.20;99.90;;;;;;5041260;28;20681;-64
2021/07/15 09:07:40;;;;;;;1.73;1.00;;;21.90;99.90;;;;;;5041272;28;20664;-64
2021/07/15 09:10:08;;;;;;;3.30;1.08;;;22.20;99.90;;;;;;5040437;28;20127;-64
2021/07/15 09:12:35;;;;;;;2.00;1.20;;;22.00;99.90;;;;;;5034682;28;20052;-65
2021/07/15 09:15:07;;;;;;;1.92;1.20;;;22.30;99.90;;;;;;5036671;28;20072;-64
2021/07/15 09:17:36;;;;;;;2.75;1.27;;;22.30;99.90;;;;;;5038879;28;20080;-64
2021/07/15 09:20:06;;;;;;;5.55;2.00;;;22.60;99.90;;;;;;5038629;28;20789;-64
2021/07/15 09:22:35;;;;;;;4.15;0.90;;;22.40;99.90;;;;;;5038671;28;20049;-63
2021/07/15 09:25:04;;;;;;;1.10;0.85;;;22.30;99.90;;;;;;5038308;28;20048;-64
2021/07/15 09:27:31;;;;;;;4.00;1.20;;;22.20;99.90;;;;;;5037208;28;20048;-64
2021/07/15 09:30:09;;;;;;;5.70;1.15;;;22.40;99.90;;;;;;5039246;28;20513;-64
2021/07/15 09:32:49;;;;;;;2.63;1.25;;;22.40;99.90;;;;;;5038433;28;20067;-64
2021/07/15 09:35:26;;;;;;;1.85;1.08;;;22.30;99.90;;;;;;5036983;28;20138;-65
2021/07/15 09:37:55;;;;;;;1.92;0.90;;;22.30;99.90;;;;;;5032197;28;20099;-64
2021/07/15 09:40:39;;;;;;;2.33;1.25;;;22.20;99.90;;;;;;5035592;28;20509;-64
2021/07/15 09:43:14;;;;;;;2.15;0.90;;;22.00;99.90;;;;;;5046062;28;20078;-64
2021/07/15 09:45:41;;;;;;;2.60;0.90;;;22.10;99.90;;;;;;5039022;28;20056;-64
2021/07/15 09:48:17;;;;;;;8.18;0.95;;;22.50;99.90;;;;;;5043795;28;20044;-63
2021/07/15 09:50:44;;;;;;;2.65;0.80;;;22.80;99.90;;;;;;5048660;28;20522;-64
2021/07/15 09:53:20;;;;;;;1.88;0.90;;;22.50;99.90;;;;;;5045683;28;20139;-64
2021/07/15 09:55:48;;;;;;;;;;;22.40;99.90;;;;;;5046029;28;20565;-64
2021/07/15 09:58:15;;;;;;;0.88;0.63;;;22.70;99.90;;;;;;5044160;28;20377;-64
2021/07/15 10:00:44;;;;;;;3.60;0.70;;;22.50;99.90;;;;;;5047364;28;20542;-63
2021/07/15 10:03:13;;;;;;;1.90;0.80;;;22.10;99.90;;;;;;5046315;28;20131;-64
2021/07/15 10:05:50;;;;;;;2.10;0.60;;;22.20;99.90;;;;;;5046672;28;20059;-64
2021/07/15 10:08:25;;;;;;;2.70;0.60;;;22.70;99.90;;;;;;5044948;28;20076;-64
2021/07/15 10:10:52;;;;;;;1.60;0.60;;;23.50;99.90;;;;;;5046875;28;20410;-64
2021/07/15 10:13:21;;;;;;;1.38;0.50;;;24.10;99.90;;;;;;5045609;28;20097;-64
2021/07/15 10:15:50;;;;;;;0.82;0.60;;;25.00;99.90;;;;;;5043143;28;20076;-66
2021/07/15 10:18:37;;;;;;;1.45;0.43;;;25.50;99.90;;;;;;5045059;28;20040;-66
2021/07/15 10:21:05;;;;;;;2.47;0.68;;;25.80;99.90;;;;;;5046530;28;20061;-65
2021/07/15 10:23:35;;;;;;;0.50;0.50;;;26.50;99.90;;;;;;5046440;28;20129;-65
2021/07/15 10:26:02;;;;;;;1.90;0.82;;;27.60;99.90;;;;;;5046886;28;20416;-65
2021/07/15 10:28:30;;;;;;;1.02;0.60;;;27.50;99.90;;;;;;5044183;28;20084;-65
2021/07/15 10:30:59;;;;;;;1.05;0.70;;;27.60;99.90;;;;;;5041821;28;20102;-65
2021/07/15 10:33:27;;;;;;;1.10;0.45;;;27.00;99.90;;;;;;5045293;28;20052;-65
2021/07/15 10:35:54;;;;;;;2.95;0.90;;;26.50;99.90;;;;;;5043280;28;20140;-65
2021/07/15 10:38:22;;;;;;;0.73;0.43;;;27.00;99.90;;;;;;5044823;28;20131;-65
2021/07/15 10:40:51;;;;;;;0.70;0.38;;;26.80;99.90;;;;;;5046011;28;20079;-65
2021/07/15 10:43:18;;;;;;;1.10;0.47;;;26.40;99.90;;;;;;5044698;28;20040;-65
2021/07/15 10:45:46;;;;;;;3.22;0.40;;;26.50;99.90;;;;;;5044822;28;20520;-65
2021/07/15 10:48:13;;;;;;;1.67;0.32;;;26.80;99.90;;;;;;5042542;28;20124;-65
2021/07/15 10:50:41;;;;;;;3.47;0.55;;;27.90;99.90;;;;;;5044917;28;20185;-65
2021/07/15 10:53:09;;;;;;;0.43;0.30;;;28.80;99.90;;;;;;5044841;28;20653;-65
2021/07/15 10:55:37;;;;;;;0.88;0.40;;;29.30;99.90;;;;;;5044451;28;20462;-65
2021/07/15 10:58:05;;;;;;;1.17;0.43;;;29.30;99.90;;;;;;5043896;28;20088;-65
2021/07/15 11:00:32;;;;;;;1.08;0.50;;;28.50;99.90;;;;;;5043433;28;20500;-65
2021/07/15 11:03:13;;;;;;;2.20;0.30;;;27.80;99.90;;;;;;5047486;28;20151;-65
2021/07/15 11:05:51;;;;;;;0.30;0.30;;;27.30;99.90;;;;;;5047390;28;20543;-65
2021/07/15 11:08:19;;;;;;;0.63;0.30;;;27.70;99.90;;;;;;5046286;28;20129;-65
2021/07/15 11:10:58;;;;;;;0.75;0.40;;;26.80;99.90;;;;;;5045635;28;20051;-66
2021/07/15 11:13:29;;;;;;;0.13;0.10;;;26.70;99.90;;;;;;5045193;28;21266;-65
2021/07/15 11:15:56;;;;;;;0.68;0.40;;;26.10;99.90;;;;;;5047099;28;20052;-65
2021/07/15 11:18:48;;;;;;;0.30;0.30;;;26.10;99.90;;;;;;5045503;28;20083;-64
2021/07/15 11:21:34;;;;;;;0.35;0.35;;;25.90;99.90;;;;;;5045465;28;20071;-64
2021/07/15 11:24:50;;;;;;;1.27;0.40;;;26.20;99.90;;;;;;5043551;28;20059;-64
2021/07/15 11:27:36;;;;;;;0.43;0.30;;;26.50;99.90;;;;;;5040787;28;20055;-64
2021/07/15 11:30:06;;;;;;;1.05;0.40;;;26.10;99.90;;;;;;5042304;28;20535;-64
2021/07/15 11:32:34;;;;;;;0.40;0.38;;;25.60;99.90;;;;;;5047076;28;20060;-64
2021/07/15 11:35:01;;;;;;;1.95;0.73;;;25.60;99.90;;;;;;5043942;28;20535;-65
2021/07/15 11:37:39;;;;;;;0.98;0.25;;;25.70;99.90;;;;;;5043912;28;20401;-64
2021/07/15 11:40:28;;;;;;;0.28;0.28;;;26.10;99.90;;;;;;5045256;28;20517;-65
2021/07/15 11:42:55;;;;;;;0.30;0.30;;;27.00;99.90;;;;;;5044800;28;20148;-63
2021/07/15 11:45:23;;;;;;;0.20;0.20;;;27.10;99.90;;;;;;5044488;28;20056;-63
2021/07/15 11:47:54;;;;;;;0.40;0.20;;;26.90;99.90;;;;;;5043861;28;20052;-63
2021/07/15 11:50:33;;;;;;;0.65;0.50;;;27.20;99.90;;;;;;5044353;28;20056;-63
2021/07/15 11:53:16;;;;;;;0.70;0.30;;;28.20;99.90;;;;;;5043884;28;20079;-64
2021/07/15 11:55:44;;;;;;;0.13;0.13;;;29.10;99.90;;;;;;5046961;28;20135;-65
2021/07/15 11:58:46;;;;;;;0.57;0.17;;;28.50;99.90;;;;;;5045331;28;20047;-65
2021/07/15 12:01:20;;;;;;;0.52;0.30;;;27.60;99.90;;;;;;5047892;28;20117;-66
2021/07/15 12:03:57;;;;;;;0.98;0.20;;;27.50;99.90;;;;;;5046454;28;20056;-64
2021/07/15 12:06:25;;;;;;;0.90;0.38;;;28.70;99.90;;;;;;5046108;28;20048;-65
2021/07/15 12:08:52;;;;;;;0.95;0.20;;;28.80;99.90;;;;;;5046348;28;20045;-64
2021/07/15 12:11:21;;;;;;;0.85;0.20;;;29.00;99.90;;;;;;5046767;28;20605;-64
2021/07/15 12:13:51;;;;;;;3.45;0.30;;;28.30;99.90;;;;;;5045707;28;20048;-64
2021/07/15 12:16:22;;;;;;;0.10;0.10;;;27.80;99.90;;;;;;5046266;28;20613;-64
2021/07/15 12:18:50;;;;;;;0.55;0.20;;;26.90;99.90;;;;;;5046279;28;20048;-64
2021/07/15 12:21:19;;;;;;;0.30;0.25;;;26.90;99.90;;;;;;5045965;28;20053;-64
2021/07/15 12:23:49;;;;;;;0.20;0.20;;;27.90;99.90;;;;;;5044044;28;20075;-64
2021/07/15 12:26:18;;;;;;;1.60;0.20;;;28.40;99.90;;;;;;5046350;28;20052;-64
2021/07/15 12:28:49;;;;;;;0.65;0.20;;;28.50;99.90;;;;;;5046058;28;20048;-65
2021/07/15 12:31:18;;;;;;;0.20;0.20;;;28.70;99.90;;;;;;5045841;28;20361;-65
2021/07/15 12:33:48;;;;;;;0.50;0.20;;;28.50;99.90;;;;;;5046789;28;20058;-65
2021/07/15 12:36:18;;;;;;;0.65;0.20;;;29.10;99.90;;;;;;5046184;28;20074;-64
2021/07/15 12:38:47;;;;;;;1.77;0.22;;;28.50;99.90;;;;;;5045893;28;20130;-65
2021/07/15 12:41:17;;;;;;;0.30;0.20;;;27.80;99.90;;;;;;5047301;28;20048;-64
2021/07/15 12:43:51;;;;;;;1.50;0.32;;;27.60;99.90;;;;;;5047350;28;20049;-64
2021/07/15 12:46:21;;;;;;;0.52;0.32;;;28.60;99.90;;;;;;5045931;28;20165;-65
2021/07/15 12:48:51;;;;;;;0.10;0.10;;;29.60;99.90;;;;;;5048474;28;20462;-65
2021/07/15 12:51:21;;;;;;;1.20;0.30;;;30.50;99.90;;;;;;5047887;28;21306;-65
2021/07/15 12:53:50;;;;;;;1.08;0.30;;;29.60;99.90;;;;;;5048349;28;20133;-64
2021/07/15 12:56:22;;;;;;;0.30;0.28;;;29.00;99.90;;;;;;5046370;28;20481;-64